ADDS METAR Data INFO
IDs: Format: Raw Decoded Include TAF

Data at: 0923 UTC 13 Dec 2017

KBUY 130854Z AUTO 25005KT 10SM CLR M03/M12 A2988 RMK AO2 SLP119 T10331122 53015
KBUY 130754Z AUTO 28007KT 10SM CLR M02/M12 A2985 RMK AO2 SLP111 T10221122
KBUY 130654Z AUTO 29010G20KT 10SM CLR M02/M12 A2984 RMK AO2 SLP105 T10171122
KBUY 130554Z AUTO 28009KT 10SM CLR M02/M12 A2983 RMK AO2 SLP103 T10171122 10033 21017 50010
KBUY 130454Z AUTO 30012G18KT 10SM CLR M01/M12 A2983 RMK AO2 PK WND 29027/0407 SLP104 T10111122 401171011
KBUY 130354Z AUTO 30012G25KT 10SM FEW055 M01/M12 A2982 RMK AO2 SLP101 T10061122
KBUY 130254Z AUTO 30012G20KT 10SM BKN060 01/M08 A2980 RMK AO2 PK WND 30026/0204 SLP094 T00061083 51021
KBUY 130154Z AUTO 29013G22KT 10SM CLR 01/M09 A2979 RMK AO2 SLP089 T00111089
KBUY 130054Z AUTO 29015G20KT 10SM CLR 02/M09 A2976 RMK AO2 PK WND 29029/0000 SLP082 T00221089
KBUY 130023Z AUTO 31016G20KT 10SM CLR 03/M09 A2975 RMK AO2 PK WND 29029/0000 T00281094
KBUY 130016Z AUTO 31014G23KT 1 1/4SM HZ CLR 03/M09 A2975 RMK AO2 PK WND 29029/0000 T00281094
KBUY 122354Z AUTO 29012G27KT M1/4SM HZ CLR 03/M08 A2974 RMK AO2 PK WND 27034/2330 SLP072 T00331083 10117 20033 53037
KBUY 122254Z AUTO 29015G33KT 1/4SM HZ OVC055 06/M04 A2969 RMK AO2 PK WND 29033/2247 PRESRR SLP057 T00611039
KBUY 122154Z AUTO 29015G23KT 10SM BKN075 08/M03 A2964 RMK AO2 SLP038 T00831033
KBUY 122054Z AUTO 29013G19KT 10SM SCT060 OVC075 09/M02 A2963 RMK AO2 SLP034 T00941022 55000
KBUY 121954Z AUTO 28012G18KT 10SM BKN065 10/M03 A2962 RMK AO2 SLP030 T01001028
KBUY 121854Z AUTO 28014G20KT 10SM OVC060 11/M02 A2962 RMK AO2 SLP032 T01061017
KBUY 121754Z AUTO 30014G22KT 10SM SCT055 12/M02 A2963 RMK AO2 SLP032 T01171017 10117 20011 58016
KBUY 121654Z AUTO 28010G18KT 10SM CLR 10/01 A2964 RMK AO2 SLP039 T01000006
KBUY 121554Z AUTO 27009KT 10SM BKN100 10/02 A2967 RMK AO2 SLP049 T01000017
KBUY 121454Z AUTO 24005KT 10SM CLR 07/03 A2968 RMK AO2 SLP050 T00670028 56012
KBUY 121354Z AUTO 22003KT 10SM CLR 04/02 A2969 RMK AO2 SLP054 T00440017
KBUY 121254Z AUTO 18004KT 10SM CLR 02/01 A2970 RMK AO2 SLP058 T00220006
KBUY 121154Z AUTO 00000KT 10SM CLR 02/01 A2971 RMK AO2 SLP062 T00170006 10044 20006 56012
KBUY 121054Z AUTO 00000KT 10SM CLR 01/M01 A2971 RMK AO2 SLP064 T00111006
KBUY 120954Z AUTO 22004KT 10SM CLR 03/01 A2973 RMK AO2 SLP069 T00330006
KBUY 120854Z AUTO 00000KT 10SM CLR 02/M01 A2975 RMK AO2 SLP073 T00171006 56029
KBUY 120754Z AUTO 00000KT 10SM CLR 04/00 A2977 RMK AO2 SLP081 T00440000
KBUY 120654Z AUTO 20003KT 10SM CLR 04/M01 A2980 RMK AO2 SLP092 T00441006
KBUY 120554Z AUTO 19005KT 10SM CLR 04/M01 A2983 RMK AO2 SLP104 T00441006 10072 20017 56031
KBUY 120454Z AUTO 19004KT 10SM CLR 05/M01 A2986 RMK AO2 SLP112 T00501011 401171056
KBUY 120354Z AUTO 00000KT 10SM CLR 04/M01 A2990 RMK AO2 SLP126 T00441011
KBUY 120254Z AUTO 00000KT 10SM CLR 05/M02 A2993 RMK AO2 SLP136 T00501017 58013
KBUY 120154Z AUTO 19004KT 10SM CLR 06/M02 A2995 RMK AO2 SLP145 T00561017
KBUY 120054Z AUTO 17003KT 10SM CLR 07/M02 A2996 RMK AO2 SLP149 T00671022
KBUY 112354Z AUTO 20003KT 10SM CLR 07/M02 A2997 RMK AO2 SLP151 T00721017 10117 20072 58005
KBUY 112254Z AUTO 19005KT 10SM CLR 08/M01 A2998 RMK AO2 SLP157 T00781011
KBUY 112154Z AUTO 23003KT 10SM CLR 11/M02 A2999 RMK AO2 SLP157 T01061022